Time;durP1;ratioP1;P1;durP2;ratioP2;P2;SDS_P1;SDS_P2;PMS_P1;PMS_P2;Temp;Humidity;BMP_temperature;BMP_pressure;BME280_temperature;BME280_humidity;BME280_pressure;Samples;Min_cycle;Max_cycle;Signal;HPM_P1;HPM_P2
2021/11/30 00:01:27;;;;;;;11.32;4.28;;;6.60;99.90;;;;;;4990148;28;20108;-72
2021/11/30 00:03:55;;;;;;;11.57;4.75;;;6.60;99.90;;;;;;4990087;28;20086;-71
2021/11/30 00:06:22;;;;;;;15.38;4.95;;;6.60;99.90;;;;;;4984127;28;20050;-72
2021/11/30 00:08:51;;;;;;;16.10;5.30;;;6.60;99.90;;;;;;4990284;28;20112;-72
2021/11/30 00:11:18;;;;;;;16.67;4.90;;;6.60;99.90;;;;;;4988741;28;20561;-70
2021/11/30 00:13:44;;;;;;;16.38;4.95;;;6.60;99.90;;;;;;4989324;28;20696;-71
2021/11/30 00:16:11;;;;;;;22.10;4.88;;;6.60;99.90;;;;;;4993027;28;20529;-71
2021/11/30 00:18:38;;;;;;;14.65;5.35;;;6.70;99.90;;;;;;4990936;28;20038;-73
2021/11/30 00:21:08;;;;;;;17.15;4.85;;;6.70;99.90;;;;;;4996409;28;20186;-71
2021/11/30 00:23:36;;;;;;;13.35;4.38;;;6.60;99.90;;;;;;4993128;28;20042;-70
2021/11/30 00:26:04;;;;;;;15.20;4.85;;;6.60;99.90;;;;;;4992043;28;20074;-72
2021/11/30 00:28:31;;;;;;;10.45;4.30;;;6.60;99.90;;;;;;5002487;28;20113;-71
2021/11/30 00:30:58;;;;;;;10.30;4.45;;;6.70;99.90;;;;;;4991693;28;20526;-72
2021/11/30 00:33:25;;;;;;;15.40;4.85;;;6.70;99.90;;;;;;4991534;28;20077;-71
2021/11/30 00:35:52;;;;;;;12.13;5.03;;;6.70;99.90;;;;;;4985291;28;20101;-73
2021/11/30 00:38:19;;;;;;;15.40;5.20;;;6.70;99.90;;;;;;4987660;28;20574;-72
2021/11/30 00:40:47;;;;;;;10.82;4.20;;;6.70;99.90;;;;;;4990923;28;20534;-73
2021/11/30 00:43:22;;;;;;;13.40;4.63;;;6.70;99.90;;;;;;5009342;28;20109;-70
2021/11/30 00:45:57;;;;;;;14.50;4.63;;;6.70;99.90;;;;;;4988638;28;20687;-70
2021/11/30 00:48:31;;;;;;;20.67;5.65;;;6.70;99.90;;;;;;4988390;28;20146;-70
2021/11/30 00:51:20;;;;;;;15.75;4.43;;;6.70;99.90;;;;;;4993826;28;20046;-71
2021/11/30 00:53:49;;;;;;;10.65;4.38;;;6.70;99.90;;;;;;5005653;28;20101;-70
2021/11/30 00:56:16;;;;;;;11.93;4.43;;;6.70;99.90;;;;;;4985783;28;20475;-72
2021/11/30 00:58:45;;;;;;;12.57;4.53;;;6.70;99.90;;;;;;4984598;28;20054;-71
2021/11/30 01:01:12;;;;;;;14.30;4.95;;;6.80;99.90;;;;;;4982218;28;20047;-70
2021/11/30 01:03:40;;;;;;;13.25;4.55;;;6.80;99.90;;;;;;4983964;28;20042;-71
2021/11/30 01:06:08;;;;;;;11.15;4.85;;;6.80;99.90;;;;;;4991102;28;20191;-71
2021/11/30 01:08:34;;;;;;;12.90;4.65;;;6.80;99.90;;;;;;4988555;28;20050;-72
2021/11/30 01:11:02;;;;;;;12.48;4.72;;;6.80;99.90;;;;;;5004862;28;20043;-72
2021/11/30 01:13:32;;;;;;;9.10;4.75;;;6.80;99.90;;;;;;4992579;28;20081;-71
2021/11/30 01:16:00;;;;;;;11.30;4.30;;;6.80;99.90;;;;;;4979358;28;20054;-71
2021/11/30 01:18:28;;;;;;;10.98;4.18;;;6.80;99.90;;;;;;4986588;28;20043;-70
2021/11/30 01:20:55;;;;;;;7.57;4.50;;;6.80;99.90;;;;;;4989666;28;20051;-71
2021/11/30 01:23:22;;;;;;;11.43;4.13;;;6.80;99.90;;;;;;4992502;28;20042;-71
2021/11/30 01:25:49;;;;;;;8.90;4.90;;;6.80;99.90;;;;;;4991106;28;20565;-71
2021/11/30 01:28:15;;;;;;;13.48;4.40;;;6.80;99.90;;;;;;4988877;28;20104;-71
2021/11/30 01:30:42;;;;;;;14.10;4.22;;;6.80;99.90;;;;;;4991255;28;20487;-71
2021/11/30 01:33:09;;;;;;;11.70;4.50;;;6.80;99.90;;;;;;4992311;28;20577;-71
2021/11/30 01:35:36;;;;;;;18.50;4.57;;;6.80;99.90;;;;;;5003655;28;20110;-71
2021/11/30 01:38:04;;;;;;;12.60;4.70;;;6.90;99.90;;;;;;4985152;28;20702;-71
2021/11/30 01:40:31;;;;;;;8.52;4.28;;;6.90;99.90;;;;;;4990094;28;20097;-72
2021/11/30 01:43:00;;;;;;;10.27;4.22;;;6.90;99.90;;;;;;4989858;28;20100;-72
2021/11/30 01:49:13;;;;;;;14.90;4.22;;;6.90;99.90;;;;;;4985183;28;20051;-72
2021/11/30 01:51:02;;;;;;;11.00;4.47;;;7.00;99.90;;;;;;4983880;28;20493;-71
2021/11/30 01:53:28;;;;;;;17.98;4.47;;;7.00;99.90;;;;;;4980644;28;20046;-72
2021/11/30 01:55:55;;;;;;;23.38;4.47;;;7.00;99.90;;;;;;4991582;28;20054;-73
2021/11/30 01:58:23;;;;;;;19.45;4.13;;;7.10;99.90;;;;;;4991542;28;20411;-71
2021/11/30 02:00:50;;;;;;;18.42;4.43;;;7.10;99.90;;;;;;4984004;28;20049;-71
2021/11/30 02:03:17;;;;;;;18.00;3.60;;;7.20;99.90;;;;;;4988481;28;20050;-71
2021/11/30 02:05:44;;;;;;;22.33;4.30;;;7.20;99.90;;;;;;4990885;28;20050;-72
2021/11/30 02:08:11;;;;;;;18.25;4.63;;;7.20;99.90;;;;;;4986341;28;20051;-72
2021/11/30 02:10:39;;;;;;;9.73;4.55;;;7.30;99.90;;;;;;4981533;28;20697;-71
2021/11/30 02:13:06;;;;;;;15.65;4.05;;;7.30;99.90;;;;;;4991418;28;20058;-71
2021/11/30 02:15:39;;;;;;;14.02;3.70;;;7.30;99.90;;;;;;4984723;28;20048;-72
2021/11/30 02:18:12;;;;;;;11.80;3.50;;;7.30;99.90;;;;;;4989367;28;20132;-73
2021/11/30 02:20:45;;;;;;;14.73;4.47;;;7.30;99.90;;;;;;4989475;28;20042;-71
2021/11/30 02:26:00;;;;;;;14.23;4.00;;;7.20;99.90;;;;;;4989214;28;20662;-72
2021/11/30 02:28:27;;;;;;;17.88;3.97;;;7.10;99.90;;;;;;4991012;28;20042;-71
2021/11/30 02:30:54;;;;;;;10.98;3.83;;;7.10;99.90;;;;;;4988962;28;20046;-70
2021/11/30 02:33:22;;;;;;;11.80;3.92;;;7.10;99.90;;;;;;4987797;28;20046;-70
2021/11/30 02:35:49;;;;;;;14.73;3.78;;;7.00;99.90;;;;;;4990209;28;20046;-71
2021/11/30 02:38:16;;;;;;;9.88;4.35;;;7.00;99.90;;;;;;4990440;28;20042;-71
2021/11/30 02:40:44;;;;;;;14.07;4.00;;;7.00;99.90;;;;;;4982573;28;20421;-72
2021/11/30 02:43:11;;;;;;;21.40;3.97;;;7.00;99.90;;;;;;4987767;28;20404;-71
2021/11/30 02:45:38;;;;;;;11.38;3.42;;;7.10;99.90;;;;;;4986436;28;20051;-72
2021/11/30 02:48:05;;;;;;;11.95;3.42;;;7.10;99.90;;;;;;4986987;28;20066;-71
2021/11/30 02:50:39;;;;;;;10.77;3.65;;;7.20;99.90;;;;;;4987572;28;20050;-72
2021/11/30 02:53:06;;;;;;;17.80;4.45;;;7.20;99.90;;;;;;4983593;28;20097;-71
2021/11/30 02:55:34;;;;;;;12.60;4.00;;;7.20;99.90;;;;;;4989449;28;20046;-71
2021/11/30 02:58:01;;;;;;;17.70;4.25;;;7.20;99.90;;;;;;4991792;28;20093;-71
2021/11/30 03:00:28;;;;;;;20.52;3.97;;;7.30;99.90;;;;;;4990037;28;20097;-71
2021/11/30 03:02:55;;;;;;;20.05;4.55;;;7.30;99.90;;;;;;4985288;28;20082;-73
2021/11/30 03:05:22;;;;;;;11.10;3.58;;;7.40;99.90;;;;;;4991499;28;20050;-72
2021/11/30 03:07:49;;;;;;;15.52;4.03;;;7.50;99.90;;;;;;4990563;28;20054;-71
2021/11/30 03:10:19;;;;;;;23.23;4.03;;;7.50;99.90;;;;;;4987872;28;20100;-71
2021/11/30 03:12:48;;;;;;;18.20;3.53;;;7.50;99.90;;;;;;4990782;28;20104;-71
2021/11/30 03:15:18;;;;;;;11.52;3.55;;;7.60;99.90;;;;;;4990369;28;20109;-71
2021/11/30 03:17:46;;;;;;;15.95;3.53;;;7.60;99.90;;;;;;4990397;28;20081;-71
2021/11/30 03:20:14;;;;;;;20.35;3.45;;;7.70;99.90;;;;;;4982177;28;20074;-71
2021/11/30 03:22:41;;;;;;;15.13;5.13;;;7.70;99.90;;;;;;4991486;28;20105;-71
2021/11/30 03:25:10;;;;;;;13.27;3.47;;;7.70;99.90;;;;;;4990930;28;20054;-71
2021/11/30 03:27:37;;;;;;;20.63;4.03;;;7.70;99.90;;;;;;4991904;28;20101;-70
2021/11/30 03:30:06;;;;;;;13.23;3.25;;;7.70;99.90;;;;;;4989406;28;20506;-71
2021/11/30 03:35:03;;;;;;;16.75;3.53;;;7.90;99.90;;;;;;4985760;28;20114;-74
2021/11/30 03:37:31;;;;;;;19.15;3.92;;;7.90;99.90;;;;;;4988099;28;20046;-72
2021/11/30 03:39:58;;;;;;;14.52;3.47;;;7.90;99.90;;;;;;4988733;28;20726;-72
2021/11/30 03:42:26;;;;;;;16.42;3.38;;;7.90;99.90;;;;;;4990404;28;20042;-71
2021/11/30 03:44:53;;;;;;;38.88;4.72;;;8.00;99.90;;;;;;4987521;28;20050;-71
2021/11/30 03:47:22;;;;;;;13.90;3.78;;;7.90;99.90;;;;;;4982136;28;20074;-71
2021/11/30 03:49:49;;;;;;;14.43;3.72;;;7.90;99.90;;;;;;4989522;28;20126;-71
2021/11/30 03:52:15;;;;;;;17.30;3.70;;;8.00;99.90;;;;;;4994385;28;20081;-72
2021/11/30 03:54:42;;;;;;;21.25;3.90;;;8.00;99.90;;;;;;4992109;28;20591;-72
2021/11/30 03:57:09;;;;;;;13.75;3.13;;;8.00;99.90;;;;;;4995388;28;20042;-71
2021/11/30 03:59:37;;;;;;;26.08;4.78;;;8.00;99.90;;;;;;4985572;28;20077;-71
2021/11/30 04:02:04;;;;;;;19.83;4.07;;;8.00;99.90;;;;;;4994113;28;20395;-72
2021/11/30 04:04:34;;;;;;;14.25;4.10;;;8.10;99.90;;;;;;4993221;28;20069;-71
2021/11/30 04:07:02;;;;;;;17.38;3.78;;;8.10;99.90;;;;;;4988988;28;20150;-72
2021/11/30 04:09:29;;;;;;;20.27;3.25;;;8.20;99.90;;;;;;4994992;28;20085;-72
2021/11/30 04:11:55;;;;;;;15.10;3.10;;;8.20;99.90;;;;;;4989718;28;20046;-71
2021/11/30 04:14:25;;;;;;;14.25;3.55;;;8.20;99.90;;;;;;4990344;28;20528;-71
2021/11/30 04:16:53;;;;;;;17.08;4.72;;;8.30;99.90;;;;;;4994132;28;20050;-71
2021/11/30 04:19:20;;;;;;;22.70;3.85;;;8.30;99.90;;;;;;4985079;28;20050;-73
2021/11/30 04:21:47;;;;;;;17.52;3.30;;;8.30;99.90;;;;;;4992243;28;20050;-72
2021/11/30 04:24:14;;;;;;;15.27;3.38;;;8.30;99.90;;;;;;4994758;28;20536;-71
2021/11/30 04:26:41;;;;;;;11.65;2.85;;;8.30;99.90;;;;;;4995061;28;20054;-72
2021/11/30 04:29:08;;;;;;;15.73;3.60;;;8.30;99.90;;;;;;4985661;28;20050;-71
2021/11/30 04:31:36;;;;;;;12.25;3.50;;;8.30;99.90;;;;;;4999486;28;20703;-71
2021/11/30 04:34:03;;;;;;;15.13;3.25;;;8.30;99.90;;;;;;4994150;28;20050;-71
2021/11/30 04:36:32;;;;;;;13.45;3.15;;;8.30;99.90;;;;;;4991742;28;20043;-72
2021/11/30 04:39:00;;;;;;;15.77;3.40;;;8.30;99.90;;;;;;4991296;28;20097;-71
2021/11/30 04:41:27;;;;;;;17.88;2.90;;;8.30;99.90;;;;;;4990694;28;20090;-73
2021/11/30 04:43:55;;;;;;;15.45;3.65;;;8.30;99.90;;;;;;4992670;28;20050;-71
2021/11/30 04:46:27;;;;;;;14.35;3.10;;;8.30;99.90;;;;;;4993222;28;20054;-72
2021/11/30 04:49:04;;;;;;;18.50;3.25;;;8.30;99.90;;;;;;4985954;28;20815;-71
2021/11/30 04:51:32;;;;;;;15.50;3.50;;;8.20;99.90;;;;;;4991452;28;20050;-70
2021/11/30 04:54:00;;;;;;;16.95;3.30;;;8.30;99.90;;;;;;4990022;28;20042;-70
2021/11/30 04:56:27;;;;;;;12.30;3.08;;;8.30;99.90;;;;;;4985357;28;20427;-72
2021/11/30 04:58:54;;;;;;;24.73;3.13;;;8.30;99.90;;;;;;4989524;28;20510;-71
2021/11/30 05:01:21;;;;;;;14.35;4.00;;;8.30;99.90;;;;;;4985768;28;20038;-73
2021/11/30 05:03:49;;;;;;;13.65;2.92;;;8.20;99.90;;;;;;4984463;28;20744;-72
2021/11/30 05:06:16;;;;;;;18.15;3.45;;;8.20;99.90;;;;;;4993976;28;20506;-71
2021/11/30 05:08:43;;;;;;;15.68;3.35;;;8.20;99.90;;;;;;4990115;28;20121;-71
2021/11/30 05:11:10;;;;;;;16.67;3.03;;;8.20;99.90;;;;;;4991362;28;20669;-72
2021/11/30 05:13:37;;;;;;;20.35;4.15;;;8.20;99.90;;;;;;4988498;28;20117;-70
2021/11/30 05:16:04;;;;;;;18.42;3.80;;;8.30;99.90;;;;;;4991403;28;20051;-70
2021/11/30 05:18:31;;;;;;;11.75;3.33;;;8.30;99.90;;;;;;4989040;28;20502;-73
2021/11/30 05:20:59;;;;;;;18.27;3.67;;;8.30;99.90;;;;;;4992752;28;20046;-71
2021/11/30 05:23:28;;;;;;;21.33;3.53;;;8.40;99.90;;;;;;4992549;28;20057;-72
2021/11/30 05:25:59;;;;;;;18.48;3.40;;;8.40;99.90;;;;;;4991464;28;20046;-73
2021/11/30 05:28:27;;;;;;;16.35;3.55;;;8.40;99.90;;;;;;4990696;28;20046;-71
2021/11/30 05:30:58;;;;;;;20.67;3.45;;;8.40;99.90;;;;;;4988200;28;20757;-70
2021/11/30 05:33:25;;;;;;;25.25;4.00;;;8.40;99.90;;;;;;4991334;28;20046;-70
2021/11/30 05:35:52;;;;;;;19.15;3.45;;;8.40;99.90;;;;;;4987634;28;20054;-71
2021/11/30 05:38:19;;;;;;;10.77;3.50;;;8.40;99.90;;;;;;4986361;28;20046;-71
2021/11/30 05:40:47;;;;;;;16.40;4.03;;;8.40;99.90;;;;;;4992170;28;20109;-70
2021/11/30 05:43:14;;;;;;;11.95;3.92;;;8.40;99.90;;;;;;4992319;28;20042;-73
2021/11/30 05:45:42;;;;;;;14.82;3.60;;;8.50;99.90;;;;;;4986742;28;20128;-70
2021/11/30 05:48:09;;;;;;;13.15;3.72;;;8.50;99.90;;;;;;4987271;28;20050;-72
2021/11/30 05:50:37;;;;;;;13.95;3.90;;;8.50;99.90;;;;;;4988759;28;20042;-71
2021/11/30 05:53:04;;;;;;;11.10;3.60;;;8.50;99.90;;;;;;4992170;28;20097;-72
2021/11/30 05:55:32;;;;;;;27.67;3.67;;;8.50;99.90;;;;;;4991897;28;20116;-71
2021/11/30 05:57:59;;;;;;;20.23;4.03;;;8.50;99.90;;;;;;4988570;28;20462;-72
2021/11/30 06:00:30;;;;;;;23.38;4.15;;;8.60;99.90;;;;;;4991101;28;20502;-70
2021/11/30 06:05:29;;;;;;;23.95;3.80;;;8.60;99.90;;;;;;4978550;28;20104;-71
2021/11/30 06:07:57;;;;;;;13.77;3.85;;;8.70;99.90;;;;;;4990581;28;20042;-71
2021/11/30 06:10:24;;;;;;;23.48;3.72;;;8.70;99.90;;;;;;4983264;28;20100;-71
2021/11/30 06:12:52;;;;;;;11.48;3.72;;;8.70;99.90;;;;;;4991852;28;20046;-72
2021/11/30 06:15:19;;;;;;;10.45;3.38;;;8.70;99.90;;;;;;4989039;28;20092;-73
2021/11/30 06:17:46;;;;;;;21.45;3.50;;;8.70;99.90;;;;;;4988326;28;20085;-72
2021/11/30 06:20:15;;;;;;;9.77;2.95;;;8.70;99.90;;;;;;4986407;28;20054;-71
2021/11/30 06:22:41;;;;;;;19.40;3.67;;;8.70;99.90;;;;;;4999872;28;20054;-72
2021/11/30 06:25:09;;;;;;;15.85;3.88;;;8.70;99.90;;;;;;4987736;28;20783;-71
2021/11/30 06:27:36;;;;;;;15.32;3.05;;;8.80;99.90;;;;;;4989135;28;20077;-74
2021/11/30 06:30:04;;;;;;;10.48;3.25;;;8.80;99.90;;;;;;4991453;28;20085;-72
2021/11/30 06:32:32;;;;;;;11.57;3.35;;;8.80;99.90;;;;;;4989198;28;20140;-71
2021/11/30 06:34:59;;;;;;;16.83;3.50;;;8.80;99.90;;;;;;4987879;28;20050;-71
2021/11/30 06:37:26;;;;;;;16.77;3.45;;;8.80;99.90;;;;;;4983116;28;20105;-71
2021/11/30 06:39:56;;;;;;;16.50;3.67;;;8.80;99.90;;;;;;4990275;28;20057;-71
2021/11/30 06:42:24;;;;;;;12.50;3.30;;;8.90;99.90;;;;;;4983131;28;20100;-71
2021/11/30 06:44:51;;;;;;;15.57;3.35;;;8.80;99.90;;;;;;4990069;28;20101;-71
2021/11/30 06:47:19;;;;;;;29.67;4.10;;;8.80;99.90;;;;;;4990377;28;20081;-73
2021/11/30 06:49:46;;;;;;;15.73;3.50;;;8.80;99.90;;;;;;4986920;28;20105;-71
2021/11/30 06:52:13;;;;;;;12.45;3.42;;;8.70;99.90;;;;;;4981260;28;20137;-71
2021/11/30 06:54:44;;;;;;;17.95;3.40;;;8.70;99.90;;;;;;4986996;28;20692;-72
2021/11/30 06:57:11;;;;;;;16.40;3.78;;;8.70;99.90;;;;;;4985197;28;20125;-73
2021/11/30 06:59:40;;;;;;;15.07;3.50;;;8.70;99.90;;;;;;4985921;28;20046;-72
2021/11/30 07:02:08;;;;;;;15.07;4.85;;;8.70;99.90;;;;;;4978189;28;20489;-72
2021/11/30 07:04:41;;;;;;;15.80;3.45;;;8.70;99.90;;;;;;4984249;28;20453;-72
2021/11/30 07:07:29;;;;;;;14.85;4.15;;;8.70;99.90;;;;;;4981936;28;20073;-72
2021/11/30 07:15:48;;;;;;;18.45;3.72;;;8.70;99.90;;;;;;4971906;28;20140;-72
2021/11/30 07:18:15;;;;;;;25.02;4.75;;;8.70;99.90;;;;;;4985960;28;20046;-72
2021/11/30 07:20:43;;;;;;;22.75;4.53;;;8.70;99.90;;;;;;4985206;28;20564;-72
2021/11/30 07:23:11;;;;;;;19.88;3.83;;;8.70;99.90;;;;;;4988606;28;20557;-73
2021/11/30 07:25:39;;;;;;;14.77;3.45;;;8.60;99.90;;;;;;4991279;28;20075;-72
2021/11/30 07:28:06;;;;;;;27.23;3.53;;;8.70;99.90;;;;;;4987316;28;20100;-70
2021/11/30 07:30:34;;;;;;;18.05;3.75;;;8.70;99.90;;;;;;4984771;28;20054;-72
2021/11/30 07:33:01;;;;;;;10.05;3.53;;;8.70;99.90;;;;;;4988238;28;20591;-73
2021/11/30 07:35:29;;;;;;;15.65;3.80;;;8.70;99.90;;;;;;4990122;28;20622;-71
2021/11/30 07:37:57;;;;;;;12.75;3.97;;;8.70;99.90;;;;;;4987311;28;20491;-74
2021/11/30 07:40:24;;;;;;;17.20;3.70;;;8.60;99.90;;;;;;4990956;28;20042;-72
2021/11/30 07:42:51;;;;;;;18.30;4.00;;;8.60;99.90;;;;;;4989975;28;20465;-72
2021/11/30 07:45:18;;;;;;;18.65;3.97;;;8.60;99.90;;;;;;4986981;28;20047;-72
2021/11/30 07:47:46;;;;;;;10.90;3.38;;;8.60;99.90;;;;;;4985615;28;20098;-72
2021/11/30 07:50:13;;;;;;;10.68;3.13;;;8.60;99.90;;;;;;4988377;28;20818;-72
2021/11/30 07:52:41;;;;;;;23.90;4.00;;;8.70;99.90;;;;;;4992938;28;20106;-73
2021/11/30 07:55:11;;;;;;;23.50;4.43;;;8.70;99.90;;;;;;4990408;28;20874;-72
2021/11/30 07:57:38;;;;;;;20.92;3.58;;;8.60;99.90;;;;;;4988701;28;20446;-72
2021/11/30 08:00:08;;;;;;;20.67;3.97;;;8.60;99.90;;;;;;4987992;28;20047;-70
2021/11/30 08:02:34;;;;;;;23.77;4.40;;;8.60;99.90;;;;;;4980009;28;20073;-72
2021/11/30 08:05:02;;;;;;;27.00;4.55;;;8.60;99.90;;;;;;4992409;28;21229;-72
2021/11/30 08:07:29;;;;;;;21.15;4.25;;;8.60;99.90;;;;;;4987433;28;20069;-71
2021/11/30 08:09:56;;;;;;;15.05;4.18;;;8.60;99.90;;;;;;4991454;28;20058;-71
2021/11/30 08:12:23;;;;;;;18.20;4.00;;;8.60;99.90;;;;;;4985313;28;20059;-73
2021/11/30 08:14:50;;;;;;;16.05;5.00;;;8.60;99.90;;;;;;4986352;28;20054;-71
2021/11/30 08:17:19;;;;;;;18.40;6.63;;;8.50;99.90;;;;;;4988961;28;20075;-72
2021/11/30 08:19:47;;;;;;;14.45;4.30;;;8.50;99.90;;;;;;4984067;28;20702;-72
2021/11/30 08:22:15;;;;;;;18.70;5.45;;;8.50;99.90;;;;;;4984545;28;20491;-72
2021/11/30 08:24:43;;;;;;;15.85;4.60;;;8.50;99.90;;;;;;4993005;28;20117;-72
2021/11/30 08:27:10;;;;;;;14.55;5.90;;;8.50;99.90;;;;;;4993269;28;20046;-72
2021/11/30 08:29:44;;;;;;;16.45;6.85;;;8.50;99.90;;;;;;4991318;28;20046;-71
2021/11/30 08:32:11;;;;;;;16.17;7.03;;;8.50;99.90;;;;;;4991011;28;20093;-71
2021/11/30 08:34:40;;;;;;;17.15;5.53;;;8.50;99.90;;;;;;4990856;28;20046;-73
2021/11/30 08:37:09;;;;;;;8.48;4.47;;;8.50;99.90;;;;;;4990323;28;20549;-72
2021/11/30 08:39:37;;;;;;;12.50;4.28;;;8.60;99.90;;;;;;4992086;28;20069;-72
2021/11/30 08:42:07;;;;;;;10.70;4.82;;;8.70;99.90;;;;;;4992787;28;20093;-72
2021/11/30 08:44:35;;;;;;;13.30;4.18;;;8.70;99.90;;;;;;4990834;28;20046;-71
2021/11/30 08:47:04;;;;;;;15.00;5.35;;;8.80;99.90;;;;;;4990608;28;20710;-72
2021/11/30 08:49:31;;;;;;;11.27;4.53;;;8.80;99.90;;;;;;4990054;28;20066;-72
2021/11/30 08:51:59;;;;;;;10.07;4.70;;;8.80;99.90;;;;;;4984158;28;20134;-72
2021/11/30 08:54:28;;;;;;;10.05;3.90;;;8.80;99.90;;;;;;4988620;28;20466;-71
2021/11/30 08:56:57;;;;;;;10.48;3.70;;;8.80;99.90;;;;;;4990898;28;20053;-71
2021/11/30 08:59:24;;;;;;;15.02;3.83;;;8.80;99.90;;;;;;4989802;28;20790;-72
2021/11/30 09:01:51;;;;;;;8.05;3.58;;;8.90;99.90;;;;;;4988633;28;20465;-72
2021/11/30 09:04:19;;;;;;;10.13;3.30;;;8.90;99.90;;;;;;4987104;28;20582;-71
2021/11/30 09:06:46;;;;;;;14.18;3.45;;;8.80;99.90;;;;;;4990149;28;20614;-72
2021/11/30 09:09:14;;;;;;;18.33;3.55;;;8.80;99.90;;;;;;4987284;28;21123;-71
2021/11/30 09:12:01;;;;;;;;;;;8.70;99.90;;;;;;4990753;28;20141;-72
2021/11/30 09:14:28;;;;;;;12.98;3.20;;;8.70;99.90;;;;;;4991677;28;19968;-72
2021/11/30 09:16:56;;;;;;;16.42;3.42;;;8.70;99.90;;;;;;4987559;28;20494;-72
2021/11/30 09:19:23;;;;;;;9.80;3.20;;;8.80;99.90;;;;;;4986455;28;20097;-71
2021/11/30 09:21:51;;;;;;;9.45;3.33;;;8.90;99.90;;;;;;4986297;28;20051;-71
2021/11/30 09:24:18;;;;;;;12.10;3.33;;;8.90;99.90;;;;;;4987432;28;20046;-72
2021/11/30 09:26:45;;;;;;;21.52;4.80;;;9.00;99.90;;;;;;4989957;28;20848;-71
2021/11/30 09:29:12;;;;;;;13.30;3.70;;;9.10;99.90;;;;;;4988658;28;21226;-72
2021/11/30 09:31:39;;;;;;;14.25;3.53;;;9.20;99.90;;;;;;4990094;28;20510;-72
2021/11/30 09:34:08;;;;;;;14.95;3.20;;;9.40;99.90;;;;;;4983274;28;20057;-70
2021/11/30 09:36:35;;;;;;;13.63;3.15;;;9.60;99.90;;;;;;4986934;28;20046;-71
2021/11/30 09:39:07;;;;;;;15.27;3.55;;;9.70;99.90;;;;;;4983335;28;20560;-72
2021/11/30 09:41:34;;;;;;;14.93;3.35;;;9.70;99.90;;;;;;4982366;28;20093;-71
2021/11/30 09:44:04;;;;;;;16.02;3.05;;;9.70;99.90;;;;;;4989335;28;20462;-71
2021/11/30 09:46:31;;;;;;;21.95;3.58;;;9.70;99.90;;;;;;4985048;28;20058;-72
2021/11/30 09:48:58;;;;;;;16.10;4.50;;;9.70;99.90;;;;;;4983347;28;20053;-71
2021/11/30 09:51:25;;;;;;;15.45;3.28;;;9.70;99.90;;;;;;4988621;28;20058;-71
2021/11/30 09:53:52;;;;;;;27.50;4.43;;;9.70;99.90;;;;;;4984194;28;20042;-70
2021/11/30 09:56:19;;;;;;;9.15;3.50;;;9.70;99.90;;;;;;4986764;28;20118;-72
2021/11/30 09:58:47;;;;;;;22.63;3.30;;;9.70;99.90;;;;;;4984185;28;20124;-72
2021/11/30 10:01:15;;;;;;;21.60;3.50;;;9.70;99.90;;;;;;4986674;28;20101;-70
2021/11/30 10:03:44;;;;;;;21.55;3.53;;;9.80;99.90;;;;;;4981511;28;20126;-70
2021/11/30 10:06:12;;;;;;;8.75;3.15;;;9.80;99.90;;;;;;5000759;28;20050;-71
2021/11/30 10:08:43;;;;;;;13.52;3.40;;;9.90;99.90;;;;;;4986137;28;20656;-72
2021/11/30 10:11:35;;;;;;;13.50;3.13;;;9.90;99.90;;;;;;4986646;28;20473;-71
2021/11/30 10:14:26;;;;;;;10.48;3.20;;;10.00;99.90;;;;;;4997402;28;20046;-72
2021/11/30 10:17:16;;;;;;;11.38;3.30;;;9.90;99.90;;;;;;4992883;28;20102;-70
2021/11/30 10:19:52;;;;;;;10.60;3.40;;;9.90;99.90;;;;;;4983651;28;20050;-69
2021/11/30 10:22:52;;;;;;;12.82;2.90;;;9.90;99.90;;;;;;5000696;28;20105;-71
2021/11/30 10:25:21;;;;;;;10.75;2.80;;;9.90;99.90;;;;;;4982284;28;20042;-72
2021/11/30 10:28:02;;;;;;;10.73;3.97;;;9.90;99.90;;;;;;4984413;28;20046;-72
2021/11/30 10:30:36;;;;;;;9.55;3.25;;;9.90;99.90;;;;;;4986469;28;20105;-72
2021/11/30 10:33:10;;;;;;;9.20;2.83;;;9.90;99.90;;;;;;4986237;28;20038;-71
2021/11/30 10:35:37;;;;;;;13.55;3.50;;;9.90;99.90;;;;;;4979221;28;20101;-73
2021/11/30 10:38:05;;;;;;;9.38;2.90;;;9.90;99.90;;;;;;4986702;28;20054;-71
2021/11/30 10:40:39;;;;;;;5.25;2.15;;;9.90;99.90;;;;;;4986480;28;21393;-73
2021/11/30 10:43:08;;;;;;;12.85;2.97;;;10.00;99.90;;;;;;4983324;28;20050;-71
2021/11/30 10:45:49;;;;;;;10.98;2.67;;;10.10;99.90;;;;;;4992516;28;20129;-70
2021/11/30 10:48:24;;;;;;;10.98;2.60;;;10.10;99.90;;;;;;4983599;28;20042;-71
2021/11/30 10:50:56;;;;;;;8.07;3.15;;;10.00;99.90;;;;;;4984006;28;20537;-71
2021/11/30 10:53:30;;;;;;;4.00;2.40;;;10.00;99.90;;;;;;4983668;28;20077;-73
2021/11/30 10:56:02;;;;;;;11.73;4.22;;;10.00;99.90;;;;;;4985948;28;20047;-72
2021/11/30 10:58:36;;;;;;;8.50;3.17;;;10.10;99.90;;;;;;4983214;28;20047;-72
2021/11/30 11:01:10;;;;;;;6.45;3.03;;;10.20;99.90;;;;;;4985994;28;20564;-72
2021/11/30 11:03:38;;;;;;;10.20;3.50;;;10.30;99.90;;;;;;4982145;28;20042;-71
2021/11/30 11:08:57;;;;;;;8.27;3.03;;;10.40;99.90;;;;;;4984197;28;20102;-73
2021/11/30 11:11:27;;;;;;;8.85;3.22;;;10.40;99.90;;;;;;4987117;28;20058;-72
2021/11/30 11:13:54;;;;;;;7.30;3.40;;;10.40;99.90;;;;;;4984260;28;21151;-74
2021/11/30 11:16:32;;;;;;;7.40;3.75;;;10.40;99.90;;;;;;4986724;28;20046;-72
2021/11/30 11:19:02;;;;;;;7.95;3.67;;;10.40;99.90;;;;;;4984992;28;20070;-71
2021/11/30 11:21:35;;;;;;;8.13;4.03;;;10.40;99.90;;;;;;4980944;28;20097;-71
2021/11/30 11:24:14;;;;;;;11.40;3.75;;;10.30;99.90;;;;;;4995304;28;20042;-74
2021/11/30 11:26:53;;;;;;;8.90;3.60;;;10.20;99.90;;;;;;4983349;28;20086;-71
2021/11/30 11:29:25;;;;;;;9.95;3.00;;;10.10;99.90;;;;;;4981230;28;20690;-72
2021/11/30 11:32:07;;;;;;;9.20;3.70;;;10.10;99.90;;;;;;4981208;28;20101;-71
2021/11/30 11:34:36;;;;;;;7.78;3.85;;;10.10;99.90;;;;;;4983281;28;20748;-70
2021/11/30 11:37:10;;;;;;;10.90;4.10;;;10.10;99.90;;;;;;4983084;28;20116;-74
2021/11/30 11:39:38;;;;;;;8.95;3.53;;;10.20;99.90;;;;;;4983618;28;20042;-71
2021/11/30 11:42:08;;;;;;;9.00;3.35;;;10.20;99.90;;;;;;4982509;28;20120;-71
2021/11/30 11:44:36;;;;;;;7.28;2.90;;;10.20;99.90;;;;;;4987158;28;20732;-72
2021/11/30 11:47:11;;;;;;;6.30;2.97;;;10.20;99.90;;;;;;5001549;28;20059;-71
2021/11/30 11:49:45;;;;;;;12.85;3.03;;;10.30;99.90;;;;;;4985428;28;20107;-71
2021/11/30 11:52:26;;;;;;;5.88;2.80;;;10.30;99.90;;;;;;4981894;28;20090;-71
2021/11/30 11:55:06;;;;;;;8.07;2.85;;;10.40;99.90;;;;;;4982834;28;20043;-71
2021/11/30 11:57:34;;;;;;;6.00;2.72;;;10.40;99.90;;;;;;4982212;28;20828;-72
2021/11/30 12:00:23;;;;;;;6.47;2.53;;;10.40;99.90;;;;;;4984610;28;20047;-71
2021/11/30 12:02:58;;;;;;;8.75;2.67;;;10.50;99.90;;;;;;4981209;28;20106;-71
2021/11/30 12:05:51;;;;;;;7.25;2.60;;;10.50;99.90;;;;;;4998444;28;20506;-72
2021/11/30 12:08:27;;;;;;;7.60;2.60;;;10.60;99.90;;;;;;4983149;28;20042;-72
2021/11/30 12:10:54;;;;;;;16.55;3.33;;;10.70;99.90;;;;;;4988727;28;20042;-70
2021/11/30 12:13:23;;;;;;;20.27;3.92;;;10.80;99.90;;;;;;4988685;28;20046;-70
2021/11/30 12:16:09;;;;;;;19.83;3.63;;;10.80;99.90;;;;;;4987034;28;20050;-70
2021/11/30 12:18:50;;;;;;;19.75;2.83;;;10.90;99.90;;;;;;4987967;28;20088;-71
2021/11/30 12:21:20;;;;;;;22.42;2.50;;;11.00;99.90;;;;;;4985794;28;20101;-72
2021/11/30 12:23:53;;;;;;;14.88;2.30;;;11.00;99.90;;;;;;4989220;28;20065;-70
2021/11/30 12:26:41;;;;;;;20.30;2.35;;;11.10;99.90;;;;;;4992673;28;20097;-74
2021/11/30 12:29:17;;;;;;;;;;;11.10;99.90;;;;;;4983473;28;20495;-72
2021/11/30 12:31:44;;;;;;;14.82;1.80;;;11.30;99.90;;;;;;4987391;28;19994;-74
2021/11/30 12:34:11;;;;;;;13.15;1.98;;;11.40;99.90;;;;;;4985174;28;20101;-72
2021/11/30 12:36:41;;;;;;;16.40;2.35;;;11.50;99.90;;;;;;4986699;28;20120;-70
2021/11/30 12:39:12;;;;;;;12.88;1.98;;;11.50;99.90;;;;;;4989724;28;20050;-71
2021/11/30 12:41:49;;;;;;;16.73;3.38;;;11.50;99.90;;;;;;4987636;28;20042;-73
2021/11/30 12:44:19;;;;;;;15.40;3.05;;;11.50;99.90;;;;;;4989344;28;20053;-71
2021/11/30 12:46:53;;;;;;;15.13;2.45;;;11.50;99.90;;;;;;4984669;28;20050;-71
2021/11/30 12:49:29;;;;;;;16.02;3.20;;;11.50;99.90;;;;;;4983006;28;20418;-71
2021/11/30 12:52:22;;;;;;;13.48;1.65;;;11.50;99.90;;;;;;4991124;28;20050;-70
2021/11/30 12:54:52;;;;;;;12.75;1.90;;;11.50;99.90;;;;;;4990872;28;20046;-70
2021/11/30 12:57:31;;;;;;;14.55;1.80;;;11.40;99.90;;;;;;4991846;28;20038;-73
2021/11/30 13:00:25;;;;;;;16.45;1.70;;;11.40;99.90;;;;;;4989182;28;20042;-71
2021/11/30 13:03:13;;;;;;;17.13;2.30;;;11.40;99.90;;;;;;4991204;28;20518;-70
2021/11/30 13:05:52;;;;;;;12.35;2.08;;;11.40;99.90;;;;;;4992026;28;20423;-71
2021/11/30 13:08:19;;;;;;;9.50;1.77;;;11.30;99.90;;;;;;4992182;28;20046;-72
2021/11/30 13:10:52;;;;;;;18.15;2.45;;;11.40;99.90;;;;;;4990644;28;20058;-71
2021/11/30 13:13:24;;;;;;;20.30;2.00;;;11.40;99.90;;;;;;4987575;28;20105;-71
2021/11/30 13:15:56;;;;;;;21.20;2.25;;;11.40;99.90;;;;;;4991995;28;20046;-72
2021/11/30 13:18:26;;;;;;;19.95;2.85;;;11.40;99.90;;;;;;4989728;28;20541;-70
2021/11/30 13:20:54;;;;;;;23.00;2.47;;;11.50;99.90;;;;;;4990089;28;20746;-71